Birmingham, AL (35215)

10:39 AM CDT on March 23, 2017 (GMT -0500)
Mary Vann Lane, Al | | Change Station

Elev 760 ft 33.63 °N, 86.66 °W | Updated 16 seconds ago

Clear
Clear
67.5 °F
Feels Like 67.5 °F
N
4.0
Wind Variable Wind from West

Today
High -- | Low -- °F
--% Chance of Precip.
Yesterday
High -- | Low -- °F
Precip. -- in
Pressure 30.34 in
Visibility 10.0 miles
Clouds Clear
Dew Point 44 °F
Humidity 44%
Rainfall 0.00 in
Snow Depth Not available.
6:46 AM 7:00 PM
Waning Crescent, 22% visible
METAR KBHM 231453Z 12009G19KT 080V150 10SM CLR 17/06 A3035 RMK A02 SLP273 T01720056 53014
Pressure 30.34 in
Visibility 10.0 miles
Clouds Clear
Dew Point 44 °F
Humidity 44%
Rainfall 0.00 in
Snow Depth Not available.
6:46 AM 7:00 PM
Waning Crescent, 22% visible
METAR KBHM 231453Z 12009G19KT 080V150 10SM CLR 17/06 A3035 RMK A02 SLP273 T01720056 53014

Get Severe Weather Alerts

Thanks for signing up!

Be on the lookout for a verification email in your inbox.

You'll start receiving the daily forecast at 8 AM.

×

10-Day Weather Forecast

Almanac

Astronomy

Mar. 23, 2017 Rise Set
Actual Time
Civil Twilight
Nautical Twilight
Astronomical Twilight
Moon
Length of Visible Light
Length of Day
Tomorrow will be .
, % of the Moon is Illuminated

Today's Extremes

State Highs State Lows

Community

WunderPhotos

Upload Photos

1,962,540 photos uploaded!

WunderBlog® & News

Nearby

Air Quality

  Air Quality AQ Index Pollutant
Not available.

Snow Depth

Station Depth Elevation

Earthquake Activity

City Distance Mag. Time & Date
Minimum magnitude displayed is 2.5.

Earthquake Activity

City Distance Mag. Time & Date
Minimum magnitude displayed is 2.5.

Coastal Water Temperatures

Place Temperature

Stations

Nearby Weather Stations

Station Location Temp. Windchill Dew Point Humidity Wind Precip. Elev Updated Type
                   

Watches & Warnings

There are currently no watches in effect.